Time;durP1;ratioP1;P1;durP2;ratioP2;P2;SDS_P1;SDS_P2;PMS_P1;PMS_P2;Temp;Humidity;BMP_temperature;BMP_pressure;BME280_temperature;BME280_humidity;BME280_pressure;Samples;Min_cycle;Max_cycle;Signal;HPM_P1;HPM_P2
2021/12/24 00:00:11;;;;;;;3.97;2.40;;;;;;;1.30;100.00;96008.38;4977433;28;20210;-84
2021/12/24 00:02:41;;;;;;;4.47;2.50;;;;;;;1.26;100.00;96004.44;4968317;28;20228;-85
2021/12/24 00:05:10;;;;;;;4.20;2.40;;;;;;;1.23;100.00;95995.97;4974263;28;20234;-85
2021/12/24 00:07:37;;;;;;;3.67;2.67;;;;;;;1.17;100.00;95980.75;4966315;28;20216;-85
2021/12/24 00:10:07;;;;;;;4.73;2.90;;;;;;;1.16;100.00;95982.59;4970283;28;20213;-85
2021/12/24 00:12:37;;;;;;;3.13;2.03;;;;;;;1.16;100.00;95977.28;4970743;28;20461;-85
2021/12/24 00:15:18;;;;;;;3.57;2.10;;;;;;;1.20;100.00;95967.91;4965603;28;20202;-85
2021/12/24 00:17:46;;;;;;;3.07;2.13;;;;;;;1.24;100.00;95969.22;4980390;28;20258;-85
2021/12/24 00:20:39;;;;;;;3.13;1.83;;;;;;;1.25;100.00;95954.91;4966606;28;20211;-85
2021/12/24 00:23:31;;;;;;;3.70;1.90;;;;;;;1.25;100.00;95954.91;4956738;28;20229;-85
2021/12/24 00:37:17;;;;;;;5.17;1.50;;;;;;;1.47;100.00;95937.22;4956844;28;20205;-85
2021/12/24 00:39:51;;;;;;;3.90;1.50;;;;;;;1.52;100.00;95937.50;4965698;28;20212;-84
2021/12/24 00:42:18;;;;;;;2.37;1.50;;;;;;;1.61;100.00;95940.88;4969137;28;20224;-84
2021/12/24 00:44:45;;;;;;;5.07;1.60;;;;;;;1.63;100.00;95931.69;4964088;28;20250;-85
2021/12/24 00:47:12;;;;;;;2.33;1.23;;;;;;;1.62;100.00;95922.06;4973841;28;20302;-84
2021/12/24 00:49:40;;;;;;;2.90;1.30;;;;;;;1.59;100.00;95924.28;4988173;28;20215;-85
2021/12/24 00:52:19;;;;;;;3.80;2.20;;;;;;;1.46;100.00;95924.91;4965305;28;20227;-85
2021/12/24 00:57:41;;;;;;;3.17;1.80;;;;;;;1.22;100.00;95922.53;4972694;28;20207;-85
2021/12/24 01:00:12;;;;;;;11.10;2.13;;;;;;;1.15;100.00;95927.75;4986456;28;20301;-85
2021/12/24 01:02:40;;;;;;;3.97;2.30;;;;;;;1.10;100.00;95930.16;4975702;28;20219;-85
2021/12/24 01:05:07;;;;;;;2.83;2.10;;;;;;;1.09;100.00;95928.50;4973730;28;20217;-85
2021/12/24 01:07:35;;;;;;;5.00;3.07;;;;;;;1.03;100.00;95934.50;4969051;28;20215;-85
2021/12/24 01:10:05;;;;;;;3.80;2.63;;;;;;;0.94;100.00;95935.59;4967628;28;20222;-86
2021/12/24 01:12:32;;;;;;;5.17;2.40;;;;;;;0.89;100.00;95932.66;4989052;28;20377;-85
2021/12/24 01:14:59;;;;;;;6.30;2.40;;;;;;;0.87;100.00;95942.66;4974383;28;20281;-85
2021/12/24 01:17:37;;;;;;;4.37;2.40;;;;;;;0.82;100.00;95950.34;4963198;28;20264;-85
2021/12/24 01:20:15;;;;;;;3.17;2.03;;;;;;;0.83;100.00;95955.47;4985997;28;20203;-86
2021/12/24 01:25:34;;;;;;;3.60;2.37;;;;;;;0.83;100.00;95971.44;4979338;28;20229;-85
2021/12/24 01:28:34;;;;;;;5.17;2.60;;;;;;;0.79;100.00;95969.28;4971168;28;20235;-86
2021/12/24 01:39:40;;;;;;;4.50;2.70;;;;;;;0.70;100.00;95976.50;4932334;28;20212;-85
2021/12/24 01:44:55;;;;;;;4.87;2.77;;;;;;;0.69;100.00;95975.69;4966508;28;20223;-85
2021/12/24 01:47:23;;;;;;;4.23;2.50;;;;;;;0.68;100.00;95982.00;4967779;28;20202;-85
2021/12/24 01:49:50;;;;;;;5.33;2.93;;;;;;;0.69;100.00;95978.34;4967029;28;20205;-85
2021/12/24 01:52:18;;;;;;;3.67;2.20;;;;;;;0.70;100.00;95985.31;4968091;28;20206;-85
2021/12/24 01:54:52;;;;;;;4.20;2.50;;;;;;;0.66;100.00;95988.50;4967931;28;20295;-85
2021/12/24 01:57:21;;;;;;;4.77;2.93;;;;;;;0.63;100.00;95981.72;4975492;28;20206;-85
2021/12/24 01:59:48;;;;;;;4.23;2.50;;;;;;;0.67;100.00;95983.03;4958880;28;20204;-85
2021/12/24 02:02:15;;;;;;;3.60;2.70;;;;;;;0.65;100.00;95977.06;4971137;28;20221;-84
2021/12/24 02:04:42;;;;;;;5.00;2.57;;;;;;;0.72;100.00;95988.63;4973923;28;20288;-85
2021/12/24 02:07:10;;;;;;;3.53;2.17;;;;;;;0.73;100.00;95984.97;4973027;28;20216;-86
2021/12/24 02:09:37;;;;;;;4.00;2.50;;;;;;;0.66;100.00;95969.91;4974137;28;20299;-85
2021/12/24 02:12:07;;;;;;;4.97;2.70;;;;;;;0.67;100.00;95974.22;4959930;28;20216;-85
2021/12/24 02:14:38;;;;;;;4.37;2.67;;;;;;;0.66;100.00;95954.81;4963719;28;20212;-85
2021/12/24 02:17:27;;;;;;;4.13;2.70;;;;;;;0.62;100.00;95952.66;4973643;28;20296;-85
2021/12/24 02:30:57;;;;;;;2.67;2.07;;;;;;;0.79;100.00;95924.94;4974991;28;20209;-85
2021/12/24 02:33:25;;;;;;;3.23;2.10;;;;;;;0.74;100.00;95932.63;4975317;28;20204;-85
2021/12/24 02:35:54;;;;;;;3.07;1.90;;;;;;;0.73;100.00;95929.16;4985280;28;20312;-85
2021/12/24 02:38:21;;;;;;;4.67;1.80;;;;;;;0.69;100.00;95930.50;4966929;28;20216;-85
2021/12/24 02:40:49;;;;;;;2.63;1.70;;;;;;;0.68;100.00;95928.06;4966481;28;20301;-85
2021/12/24 02:43:19;;;;;;;2.87;1.87;;;;;;;0.77;100.00;95937.56;4977005;28;20232;-85
2021/12/24 02:45:47;;;;;;;2.93;1.90;;;;;;;0.70;100.00;95905.59;4960279;28;20324;-85
2021/12/24 02:48:47;;;;;;;2.00;1.60;;;;;;;0.70;100.00;95908.25;4977027;28;20196;-85
2021/12/24 02:54:01;;;;;;;3.13;2.03;;;;;;;0.68;100.00;95894.31;4974331;28;20254;-85
2021/12/24 02:56:31;;;;;;;4.87;1.77;;;;;;;0.68;100.00;95891.66;4966463;28;20205;-85
2021/12/24 02:59:00;;;;;;;2.10;1.50;;;;;;;0.77;100.00;95878.31;4971702;28;20215;-85
2021/12/24 03:01:31;;;;;;;2.97;1.97;;;;;;;1.00;100.00;95865.78;4972174;28;20210;-86
2021/12/24 03:03:58;;;;;;;1.70;1.50;;;;;;;1.12;100.00;95861.63;4983308;28;20232;-85
2021/12/24 03:06:30;;;;;;;2.10;1.30;;;;;;;1.19;100.00;95853.78;4970401;28;20204;-85
2021/12/24 03:08:57;;;;;;;1.80;1.53;;;;;;;1.24;100.00;95844.22;4980049;28;20200;-85
2021/12/24 03:11:25;;;;;;;2.30;1.50;;;;;;;1.24;100.00;95841.56;4978165;28;20247;-85
2021/12/24 03:13:55;;;;;;;2.40;1.70;;;;;;;1.22;100.00;95845.41;4969471;28;20251;-86
2021/12/24 03:16:22;;;;;;;2.07;1.40;;;;;;;1.21;100.00;95836.59;4963162;28;20230;-85
2021/12/24 03:18:51;;;;;;;1.93;1.60;;;;;;;1.19;100.00;95837.81;4963927;28;20210;-85
2021/12/24 03:21:22;;;;;;;1.40;1.10;;;;;;;1.20;100.00;95844.75;4983489;28;20208;-85
2021/12/24 03:26:34;;;;;;;1.30;1.20;;;;;;;1.12;100.00;95840.38;4970558;28;20220;-85
2021/12/24 03:29:01;;;;;;;1.30;1.20;;;;;;;1.07;100.00;95829.47;4975425;28;20267;-85
2021/12/24 03:31:28;;;;;;;1.60;1.13;;;;;;;1.08;100.00;95826.63;4970525;28;20209;-86
2021/12/24 03:33:55;;;;;;;1.87;1.17;;;;;;;1.07;100.00;95824.16;4970412;28;20207;-85
2021/12/24 03:36:26;;;;;;;1.23;1.10;;;;;;;1.09;100.00;95812.34;4969246;28;20334;-82
2021/12/24 03:38:56;;;;;;;1.63;1.10;;;;;;;1.08;100.00;95810.69;4969776;28;20208;-81
2021/12/24 03:41:25;;;;;;;1.40;1.20;;;;;;;1.13;100.00;95802.13;4963045;28;20294;-82
2021/12/24 03:43:54;;;;;;;1.73;1.10;;;;;;;1.14;100.00;95795.81;4971300;28;20223;-82
2021/12/24 03:46:30;;;;;;;1.20;1.10;;;;;;;1.22;100.00;95785.06;4969402;28;20239;-81
2021/12/24 03:49:00;;;;;;;1.10;1.00;;;;;;;1.26;100.00;95788.19;4977496;28;20208;-82
2021/12/24 03:51:38;;;;;;;1.87;1.10;;;;;;;1.30;100.00;95798.25;4972335;28;20215;-82
2021/12/24 03:56:52;;;;;;;5.13;1.10;;;;;;;1.40;100.00;95776.69;4959417;28;20206;-80
2021/12/24 03:59:56;;;;;;;1.70;1.20;;;;;;;1.40;100.00;95793.47;4986096;28;20216;-82
2021/12/24 04:02:42;;;;;;;2.50;1.10;;;;;;;1.28;100.00;95786.97;4981896;28;20239;-83
2021/12/24 04:05:46;;;;;;;1.80;1.30;;;;;;;1.19;100.00;95780.13;4937998;29;20276;-81
2021/12/24 04:08:31;;;;;;;2.33;1.40;;;;;;;1.16;100.00;95774.34;4986517;28;20225;-83
2021/12/24 04:11:28;;;;;;;1.27;1.13;;;;;;;1.09;100.00;95769.78;4979537;28;20220;-82
2021/12/24 04:13:56;;;;;;;2.87;1.40;;;;;;;1.10;100.00;95768.78;4983247;28;20215;-81
2021/12/24 04:16:23;;;;;;;1.20;1.10;;;;;;;1.08;100.00;95762.81;4963984;28;20206;-81
2021/12/24 04:19:20;;;;;;;2.17;1.30;;;;;;;1.07;100.00;95761.16;4970347;28;20204;-82
2021/12/24 04:24:52;;;;;;;1.63;1.40;;;;;;;1.06;100.00;95748.88;4970115;28;20274;-82
2021/12/24 04:27:23;;;;;;;1.93;1.30;;;;;;;1.02;100.00;95749.47;4969665;28;20203;-82
2021/12/24 04:29:52;;;;;;;4.87;3.00;;;;;;;1.02;100.00;95763.53;4975889;28;20215;-82
2021/12/24 04:32:23;;;;;;;7.90;4.97;;;;;;;0.92;100.00;95767.53;4974972;28;20251;-82
2021/12/24 04:34:52;;;;;;;9.77;5.20;;;;;;;0.79;100.00;95770.00;4989323;28;20263;-82
2021/12/24 04:38:04;;;;;;;7.13;4.70;;;;;;;0.69;100.00;95773.75;4968730;28;20348;-82
2021/12/24 04:51:33;;;;;;;3.97;2.87;;;;;;;0.52;100.00;95766.94;4983321;28;20267;-81
2021/12/24 05:02:55;;;;;;;3.20;2.10;;;;;;;0.45;100.00;95771.34;4976211;28;20236;-82
2021/12/24 05:05:35;;;;;;;6.53;2.87;;;;;;;0.51;100.00;95785.75;4967983;28;20205;-83
2021/12/24 05:08:19;;;;;;;5.60;2.83;;;;;;;0.53;100.00;95800.47;4962053;28;20214;-82
2021/12/24 05:10:48;;;;;;;3.73;2.50;;;;;;;0.61;100.00;95802.22;4972127;28;20212;-81
2021/12/24 05:13:19;;;;;;;5.80;2.60;;;;;;;0.70;100.00;95806.44;4984656;28;20209;-82
2021/12/24 05:16:17;;;;;;;8.20;4.60;;;;;;;0.84;100.00;95807.47;4979314;28;20207;-82
2021/12/24 05:22:30;;;;;;;4.17;2.80;;;;;;;0.80;100.00;95807.00;4894241;29;20262;-82
2021/12/24 05:24:58;;;;;;;3.40;2.30;;;;;;;0.82;100.00;95809.50;4953947;28;20254;-82
2021/12/24 05:27:26;;;;;;;2.73;2.20;;;;;;;0.73;100.00;95801.59;4967753;28;20212;-82
2021/12/24 05:29:55;;;;;;;3.67;2.17;;;;;;;0.71;100.00;95808.94;4969572;28;20250;-82
2021/12/24 05:32:24;;;;;;;4.20;2.30;;;;;;;0.68;100.00;95819.91;4963383;28;20216;-82
2021/12/24 05:34:51;;;;;;;4.13;2.23;;;;;;;0.67;100.00;95828.09;4959619;28;20315;-82
2021/12/24 05:37:18;;;;;;;3.90;2.30;;;;;;;0.58;100.00;95824.69;4965297;28;20202;-82
2021/12/24 05:39:45;;;;;;;5.70;2.70;;;;;;;0.54;100.00;95833.19;4977109;28;20216;-81
2021/12/24 05:42:13;;;;;;;3.37;2.30;;;;;;;0.50;100.00;95837.22;4967407;28;20228;-82
2021/12/24 05:44:40;;;;;;;3.53;2.30;;;;;;;0.49;100.00;95851.50;4967475;28;20220;-82
2021/12/24 05:47:35;;;;;;;2.83;2.20;;;;;;;0.40;100.00;95840.13;4966172;28;20205;-82
2021/12/24 05:50:07;;;;;;;3.30;2.50;;;;;;;0.42;100.00;95840.78;4981072;28;20547;-82
2021/12/24 05:52:43;;;;;;;3.10;2.23;;;;;;;0.42;100.00;95851.41;4968563;28;20196;-82
2021/12/24 05:55:36;;;;;;;3.37;2.10;;;;;;;0.40;100.00;95839.31;4965175;28;20202;-82
2021/12/24 05:58:12;;;;;;;3.93;2.53;;;;;;;0.38;100.00;95839.47;4977212;28;20330;-82
2021/12/24 06:00:41;;;;;;;3.47;2.40;;;;;;;0.42;100.00;95851.41;4969768;28;20232;-82
2021/12/24 06:03:11;;;;;;;4.17;2.10;;;;;;;0.38;100.00;95842.13;4961338;28;20315;-82
2021/12/24 06:05:39;;;;;;;4.60;2.57;;;;;;;0.37;100.00;95843.13;4963869;28;20209;-81
2021/12/24 06:08:07;;;;;;;4.10;2.60;;;;;;;0.31;100.00;95844.69;4959625;28;20200;-82
2021/12/24 06:10:35;;;;;;;3.67;2.57;;;;;;;0.36;100.00;95847.63;4961049;28;20209;-82
2021/12/24 06:13:03;;;;;;;4.43;3.17;;;;;;;0.36;100.00;95852.94;4956444;28;20200;-82
2021/12/24 06:15:30;;;;;;;5.57;3.13;;;;;;;0.36;100.00;95849.44;4965650;28;20214;-83
2021/12/24 06:17:59;;;;;;;3.40;2.70;;;;;;;0.33;100.00;95850.66;4966720;28;20252;-83
2021/12/24 06:20:28;;;;;;;3.57;2.57;;;;;;;0.34;100.00;95843.50;4968038;28;20224;-81
2021/12/24 06:22:55;;;;;;;3.23;2.40;;;;;;;0.37;100.00;95849.28;4967012;28;20230;-82
2021/12/24 06:25:23;;;;;;;2.77;2.37;;;;;;;0.34;100.00;95838.22;4967705;28;20268;-82
2021/12/24 06:27:50;;;;;;;3.43;2.30;;;;;;;0.34;100.00;95841.66;4965986;28;20235;-82
2021/12/24 06:30:17;;;;;;;2.87;2.13;;;;;;;0.37;100.00;95843.97;4966668;28;20271;-81
2021/12/24 06:32:44;;;;;;;2.70;2.00;;;;;;;0.35;100.00;95837.16;4956225;28;20257;-82
2021/12/24 06:35:11;;;;;;;2.50;2.00;;;;;;;0.37;100.00;95841.31;4970779;28;20237;-82
2021/12/24 06:37:40;;;;;;;2.60;2.40;;;;;;;0.41;100.00;95833.81;4962027;28;20239;-82
2021/12/24 06:40:08;;;;;;;3.50;2.10;;;;;;;0.50;100.00;95848.69;4965199;28;20208;-82
2021/12/24 06:42:35;;;;;;;4.50;2.43;;;;;;;0.63;100.00;95842.72;4964279;28;20291;-82
2021/12/24 06:45:03;;;;;;;6.17;3.37;;;;;;;0.72;100.00;95841.66;4960499;28;20233;-82
2021/12/24 06:47:30;;;;;;;4.63;3.10;;;;;;;0.78;100.00;95827.63;4967774;28;20263;-83
2021/12/24 06:49:57;;;;;;;4.83;2.80;;;;;;;0.85;100.00;95831.19;4978764;28;20232;-82
2021/12/24 06:52:24;;;;;;;3.57;2.43;;;;;;;0.90;100.00;95828.00;4964753;28;20207;-81
2021/12/24 06:54:53;;;;;;;5.70;2.83;;;;;;;0.93;100.00;95843.59;4975815;28;20206;-83
2021/12/24 06:57:24;;;;;;;3.77;2.70;;;;;;;0.90;100.00;95839.47;4959428;28;20247;-82
2021/12/24 06:59:52;;;;;;;4.03;2.70;;;;;;;0.94;100.00;95853.19;4975216;28;20277;-82
2021/12/24 07:02:19;;;;;;;3.97;2.17;;;;;;;0.89;100.00;95850.28;4962944;28;20197;-82
2021/12/24 07:04:46;;;;;;;4.07;2.57;;;;;;;0.89;100.00;95843.13;4965433;28;20268;-82
2021/12/24 07:07:13;;;;;;;3.43;2.43;;;;;;;0.92;100.00;95849.91;4956241;28;20299;-81
2021/12/24 07:09:42;;;;;;;2.20;1.70;;;;;;;0.94;100.00;95845.22;4967775;28;20262;-81
2021/12/24 07:12:12;;;;;;;2.70;2.23;;;;;;;0.95;100.00;95852.19;4956093;28;20214;-81
2021/12/24 07:14:41;;;;;;;3.50;2.43;;;;;;;0.94;100.00;95846.03;4962241;28;20213;-82
2021/12/24 07:17:09;;;;;;;3.97;2.50;;;;;;;0.98;100.00;95847.34;4964294;28;20201;-82
2021/12/24 07:19:36;;;;;;;2.43;1.83;;;;;;;1.07;100.00;95848.91;4962573;28;20212;-82
2021/12/24 07:22:07;;;;;;;2.30;1.70;;;;;;;0.95;100.00;95847.69;4968048;28;20207;-82
2021/12/24 07:24:34;;;;;;;3.47;2.67;;;;;;;0.90;100.00;95851.94;4965105;28;20239;-82
2021/12/24 07:27:02;;;;;;;6.63;4.60;;;;;;;0.90;100.00;95851.94;4982069;28;20258;-83
2021/12/24 07:29:31;;;;;;;5.57;3.47;;;;;;;0.84;100.00;95842.03;4966916;28;20231;-82
2021/12/24 07:31:59;;;;;;;8.13;4.60;;;;;;;0.83;100.00;95832.41;4964062;28;20211;-82
2021/12/24 07:34:26;;;;;;;8.33;5.13;;;;;;;0.86;100.00;95835.50;4962890;28;20264;-82
2021/12/24 07:36:53;;;;;;;7.20;4.60;;;;;;;0.93;100.00;95838.28;4967531;28;20271;-82
2021/12/24 07:39:20;;;;;;;5.33;3.70;;;;;;;0.96;100.00;95837.91;4971069;28;20198;-83
2021/12/24 07:41:48;;;;;;;3.83;2.57;;;;;;;1.02;100.00;95826.56;4972070;28;20210;-82
2021/12/24 07:44:18;;;;;;;4.63;2.47;;;;;;;1.14;100.00;95841.00;4975433;28;20216;-82
2021/12/24 07:46:50;;;;;;;6.03;3.87;;;;;;;1.15;100.00;95837.34;4984280;28;20256;-82
2021/12/24 07:49:30;;;;;;;5.23;2.60;;;;;;;1.32;100.00;95841.47;4988784;28;20203;-83
2021/12/24 07:52:08;;;;;;;5.67;3.20;;;;;;;1.39;100.00;95846.84;4991606;28;20200;-83
2021/12/24 07:54:39;;;;;;;3.10;2.80;;;;;;;1.38;100.00;95853.19;4959122;28;20207;-82
2021/12/24 07:57:08;;;;;;;2.93;2.00;;;;;;;1.33;100.00;95848.44;4970759;28;20243;-83
2021/12/24 07:59:37;;;;;;;10.27;2.90;;;;;;;1.27;100.00;95841.19;4976747;28;20303;-82
2021/12/24 08:02:09;;;;;;;5.90;2.90;;;;;;;1.36;100.00;95856.03;4968839;28;20215;-84
2021/12/24 08:04:38;;;;;;;7.07;3.37;;;;;;;1.37;100.00;95851.53;4987657;28;20247;-83
2021/12/24 08:07:06;;;;;;;3.33;2.70;;;;;;;1.44;100.00;95836.50;4990250;28;20195;-83
2021/12/24 08:09:33;;;;;;;8.10;2.83;;;;;;;1.45;100.00;95830.97;4971671;28;20201;-80
2021/12/24 08:12:00;;;;;;;2.60;1.90;;;;;;;1.42;100.00;95843.84;4974243;28;20303;-82
2021/12/24 08:14:27;;;;;;;2.07;1.57;;;;;;;1.41;100.00;95843.00;4973556;28;20211;-82
2021/12/24 08:16:54;;;;;;;4.17;3.20;;;;;;;1.42;100.00;95827.88;4963964;28;20220;-81
2021/12/24 08:19:23;;;;;;;5.57;2.80;;;;;;;1.40;100.00;95812.09;4972930;28;20227;-81
2021/12/24 08:21:50;;;;;;;4.10;2.80;;;;;;;1.45;100.00;95817.66;4971440;28;20212;-82
2021/12/24 08:24:18;;;;;;;4.37;2.97;;;;;;;1.45;100.00;95827.47;4971181;28;20230;-81
2021/12/24 08:26:45;;;;;;;5.30;3.20;;;;;;;1.42;100.00;95827.88;4973902;28;20211;-82
2021/12/24 08:29:12;;;;;;;6.00;4.00;;;;;;;1.34;100.00;95814.69;4983758;28;20230;-82
2021/12/24 08:31:40;;;;;;;11.23;5.17;;;;;;;1.31;100.00;95818.53;4970183;28;20301;-81
2021/12/24 08:34:08;;;;;;;8.17;5.23;;;;;;;1.30;100.00;95830.19;4971923;28;20204;-81
2021/12/24 08:36:36;;;;;;;8.27;5.60;;;;;;;1.31;100.00;95828.34;4976355;28;20223;-82
2021/12/24 08:39:05;;;;;;;9.43;5.43;;;;;;;1.31;100.00;95834.50;4974224;28;20219;-82
2021/12/24 08:41:32;;;;;;;4.60;3.10;;;;;;;1.33;100.00;95829.81;4974208;28;20210;-82
2021/12/24 08:43:59;;;;;;;5.37;3.00;;;;;;;1.32;100.00;95825.50;4960196;28;20220;-81
2021/12/24 08:46:27;;;;;;;6.13;3.47;;;;;;;1.32;100.00;95824.69;4966857;28;20211;-82
2021/12/24 08:48:54;;;;;;;4.50;3.30;;;;;;;1.31;100.00;95815.88;4973257;28;20208;-82
2021/12/24 08:51:21;;;;;;;5.07;3.40;;;;;;;1.25;100.00;95813.97;4968130;28;20319;-83
2021/12/24 08:53:49;;;;;;;5.33;3.47;;;;;;;1.29;100.00;95817.06;4969857;28;20215;-84
2021/12/24 08:56:16;;;;;;;4.83;3.47;;;;;;;1.40;100.00;95816.59;4969669;28;20691;-84
2021/12/24 08:58:43;;;;;;;4.33;3.20;;;;;;;1.51;100.00;95798.31;4979718;28;20215;-84
2021/12/24 09:01:12;;;;;;;2.90;2.47;;;;;;;1.78;100.00;95801.28;4979236;28;20211;-85
2021/12/24 09:03:39;;;;;;;7.60;2.43;;;;;;;1.90;100.00;95797.06;4976399;28;20217;-85
2021/12/24 09:06:06;;;;;;;3.80;2.40;;;;;;;2.16;100.00;95788.50;4968591;28;20295;-83
2021/12/24 09:08:34;;;;;;;5.13;3.10;;;;;;;2.42;100.00;95787.91;4987796;28;20251;-85
2021/12/24 09:11:03;;;;;;;4.00;2.80;;;;;;;2.64;100.00;95786.81;4969308;28;20199;-85
2021/12/24 09:13:30;;;;;;;5.77;3.23;;;;;;;2.78;100.00;95775.25;4965067;28;20212;-85
2021/12/24 09:15:57;;;;;;;4.57;2.90;;;;;;;2.80;100.00;95781.22;4969431;28;20208;-85
2021/12/24 09:18:25;;;;;;;6.00;4.03;;;;;;;2.81;100.00;95780.16;4967097;28;20207;-84
2021/12/24 09:20:54;;;;;;;6.97;4.70;;;;;;;2.71;100.00;95773.56;4974253;28;20216;-84
2021/12/24 09:23:22;;;;;;;9.40;5.43;;;;;;;2.62;100.00;95779.03;4962463;28;20211;-84
2021/12/24 09:26:04;;;;;;;6.67;4.90;;;;;;;2.55;100.00;95774.69;4956979;28;20239;-91
2021/12/24 09:28:33;;;;;;;6.87;3.90;;;;;;;2.52;100.00;95777.72;4959576;28;20323;-84
2021/12/24 09:31:00;;;;;;;3.87;2.83;;;;;;;2.61;100.00;95773.91;4966732;28;20215;-83
2021/12/24 09:33:27;;;;;;;4.13;2.40;;;;;;;2.83;100.00;95780.81;4984656;28;20216;-84
2021/12/24 09:35:54;;;;;;;3.70;2.57;;;;;;;2.89;100.00;95772.00;4966235;28;20247;-84
2021/12/24 09:38:22;;;;;;;5.80;3.03;;;;;;;2.98;100.00;95784.16;4960757;28;20223;-84
2021/12/24 09:40:49;;;;;;;10.33;6.40;;;;;;;2.98;100.00;95783.34;4964380;28;20236;-83
2021/12/24 09:43:17;;;;;;;9.83;6.30;;;;;;;2.82;100.00;95778.31;4967134;28;20232;-81
2021/12/24 09:45:45;;;;;;;11.07;6.43;;;;;;;2.67;100.00;95781.09;4965881;28;20300;-82
2021/12/24 09:48:12;;;;;;;9.77;5.90;;;;;;;2.54;100.00;95776.53;4966652;28;20233;-83
2021/12/24 09:50:40;;;;;;;12.57;5.80;;;;;;;2.48;100.00;95779.94;4974599;28;20197;-83
2021/12/24 09:53:07;;;;;;;11.27;6.00;;;;;;;2.51;100.00;95784.06;4964129;28;20244;-83
2021/12/24 09:55:34;;;;;;;10.07;6.10;;;;;;;2.50;100.00;95771.75;4955167;28;20272;-83
2021/12/24 09:58:01;;;;;;;9.37;5.47;;;;;;;2.60;100.00;95774.91;4966896;28;20211;-83
2021/12/24 10:00:30;;;;;;;8.00;5.40;;;;;;;2.66;100.00;95763.47;4980071;28;20240;-82
2021/12/24 10:03:00;;;;;;;10.43;6.43;;;;;;;2.67;100.00;95760.63;4957858;28;20285;-82
2021/12/24 10:05:35;;;;;;;11.80;5.67;;;;;;;2.76;100.00;95755.94;4958970;28;20234;-83
2021/12/24 10:08:08;;;;;;;9.27;6.27;;;;;;;2.85;100.00;95762.78;4965664;28;20295;-82
2021/12/24 10:10:36;;;;;;;10.80;5.87;;;;;;;2.93;100.00;95751.94;4962943;28;20223;-82
2021/12/24 10:13:29;;;;;;;9.10;5.70;;;;;;;3.03;100.00;95728.41;4978799;28;20316;-82
2021/12/24 10:15:59;;;;;;;11.50;6.37;;;;;;;3.10;100.00;95731.09;4961864;28;20521;-82
2021/12/24 10:18:38;;;;;;;11.77;5.97;;;;;;;3.18;100.00;95730.91;4963377;28;20217;-82
2021/12/24 10:21:10;;;;;;;10.27;6.27;;;;;;;3.32;100.00;95723.78;4956475;28;20201;-81
2021/12/24 10:23:43;;;;;;;9.30;5.53;;;;;;;3.33;100.00;95709.41;4973876;28;20200;-82
2021/12/24 10:26:20;;;;;;;9.80;6.10;;;;;;;3.51;100.00;95703.50;4965402;28;20279;-82
2021/12/24 10:29:05;;;;;;;9.50;5.83;;;;;;;3.69;100.00;95691.22;4959721;28;20315;-82
2021/12/24 10:31:37;;;;;;;61.63;26.93;;;;;;;3.84;100.00;95695.53;4980049;28;20209;-83
2021/12/24 10:34:22;;;;;;;30.40;14.03;;;;;;;3.90;100.00;95686.75;4982725;28;20252;-83
2021/12/24 10:37:00;;;;;;;18.80;9.77;;;;;;;3.96;100.00;95686.72;4963798;28;20208;-84
2021/12/24 10:39:30;;;;;;;9.50;5.30;;;;;;;4.06;100.00;95670.31;4972520;28;20200;-84
2021/12/24 10:41:59;;;;;;;11.50;6.57;;;;;;;4.16;100.00;95681.41;4985052;28;20196;-82
2021/12/24 10:44:28;;;;;;;11.53;6.30;;;;;;;4.26;100.00;95680.94;4967944;28;20208;-83
2021/12/24 10:47:02;;;;;;;15.03;6.53;;;;;;;4.27;100.00;95683.41;4958468;28;20213;-83
2021/12/24 10:52:46;;;;;;;13.17;6.47;;;;;;;4.32;100.00;95680.16;4967567;28;20218;-83
2021/12/24 10:55:17;;;;;;;14.37;7.67;;;;;;;4.24;100.00;95683.03;4971511;28;20211;-85
2021/12/24 10:57:47;;;;;;;7.93;5.50;;;;;;;4.22;100.00;95675.22;4971248;28;20290;-84
2021/12/24 11:00:19;;;;;;;9.30;5.80;;;;;;;4.16;100.00;95684.06;4977855;28;20251;-85
2021/12/24 11:02:52;;;;;;;8.63;5.93;;;;;;;4.12;100.00;95680.97;4961034;28;20232;-83
2021/12/24 11:05:33;;;;;;;11.20;5.93;;;;;;;4.09;100.00;95673.34;4961458;28;20307;-82
2021/12/24 11:08:02;;;;;;;10.77;6.27;;;;;;;4.08;100.00;95684.28;4971651;28;20226;-82
2021/12/24 11:10:30;;;;;;;10.47;5.47;;;;;;;4.08;100.00;95690.41;4966065;28;20537;-82
2021/12/24 11:13:02;;;;;;;7.27;5.00;;;;;;;4.10;100.00;95699.06;4968988;28;20224;-83
2021/12/24 11:15:32;;;;;;;7.43;4.83;;;;;;;4.04;100.00;95681.19;4964683;28;20327;-87
2021/12/24 11:18:01;;;;;;;8.73;5.60;;;;;;;4.04;100.00;95685.72;4976038;28;20199;-82
2021/12/24 11:20:31;;;;;;;8.20;5.27;;;;;;;4.04;100.00;95689.19;4965419;28;20304;-82
2021/12/24 11:23:03;;;;;;;8.93;5.07;;;;;;;4.03;100.00;95687.56;4958477;28;20208;-82
2021/12/24 11:25:32;;;;;;;8.83;4.83;;;;;;;4.04;100.00;95683.03;4964847;28;20310;-82
2021/12/24 11:28:01;;;;;;;7.27;4.70;;;;;;;4.02;100.00;95674.41;4963963;28;20355;-83
2021/12/24 11:30:29;;;;;;;11.60;5.27;;;;;;;4.09;100.00;95664.53;4965150;28;20220;-83
2021/12/24 11:32:57;;;;;;;8.07;5.23;;;;;;;4.08;100.00;95669.03;4968344;28;20295;-83
2021/12/24 11:35:26;;;;;;;7.20;5.10;;;;;;;4.09;100.00;95656.50;4964937;28;20268;-83
2021/12/24 11:37:55;;;;;;;8.63;5.37;;;;;;;4.15;100.00;95658.38;4965615;28;20260;-83
2021/12/24 11:40:24;;;;;;;10.83;7.27;;;;;;;4.13;100.00;95649.75;4957085;28;20201;-83
2021/12/24 11:42:55;;;;;;;8.90;5.83;;;;;;;4.17;100.00;95650.94;4961215;28;20212;-84
2021/12/24 11:45:25;;;;;;;12.47;7.27;;;;;;;4.22;100.00;95645.81;4956788;28;20237;-84
2021/12/24 11:47:53;;;;;;;15.10;7.60;;;;;;;4.32;100.00;95646.22;4964665;28;20193;-83
2021/12/24 11:50:21;;;;;;;13.30;8.10;;;;;;;4.37;100.00;95630.38;4965482;28;20233;-83
2021/12/24 11:52:51;;;;;;;12.87;7.00;;;;;;;4.46;100.00;95617.59;4962960;28;20368;-83
2021/12/24 11:55:20;;;;;;;11.37;6.97;;;;;;;4.55;100.00;95614.50;4977495;28;20255;-83
2021/12/24 11:57:53;;;;;;;10.50;6.40;;;;;;;4.66;100.00;95604.19;4959093;28;20206;-83
2021/12/24 12:00:26;;;;;;;12.23;7.60;;;;;;;4.72;100.00;95597.97;4973955;28;20248;-83
2021/12/24 12:02:54;;;;;;;12.57;6.67;;;;;;;4.84;100.00;95599.78;4964600;28;20206;-83
2021/12/24 12:05:26;;;;;;;9.93;5.83;;;;;;;5.01;100.00;95594.78;4961046;28;20228;-83
2021/12/24 12:08:39;;;;;;;10.70;5.30;;;;;;;5.16;100.00;95587.25;4955927;28;20242;-84
2021/12/24 12:11:18;;;;;;;6.97;4.70;;;;;;;5.29;100.00;95581.00;4961570;28;20220;-84
2021/12/24 12:13:49;;;;;;;6.90;4.70;;;;;;;5.43;100.00;95557.66;4963831;28;20251;-84
2021/12/24 12:16:19;;;;;;;10.10;6.23;;;;;;;5.59;100.00;95552.56;4965187;28;20299;-82
2021/12/24 12:19:00;;;;;;;12.10;6.70;;;;;;;5.71;100.00;95548.13;4965051;28;20336;-83
2021/12/24 12:21:37;;;;;;;10.50;5.83;;;;;;;5.78;100.00;95541.91;4972134;28;20229;-83
2021/12/24 12:27:01;;;;;;;3.17;1.77;;;;;;;6.14;98.17;95509.00;4958154;28;20320;-83
2021/12/24 12:29:34;;;;;;;4.83;1.90;;;;;;;6.40;94.45;95506.00;4957672;28;20268;-83
2021/12/24 12:32:25;;;;;;;5.83;2.40;;;;;;;6.77;92.18;95494.19;4963181;28;20312;-82
2021/12/24 12:35:02;;;;;;;5.33;2.03;;;;;;;6.97;91.02;95480.50;4963041;28;20296;-83
2021/12/24 12:37:31;;;;;;;5.07;2.37;;;;;;;7.08;90.00;95473.50;4983021;28;20324;-82
2021/12/24 12:40:05;;;;;;;5.27;3.17;;;;;;;7.18;90.24;95465.72;4966602;28;20221;-82
2021/12/24 12:43:11;;;;;;;6.93;2.80;;;;;;;7.23;90.95;95469.34;4969849;28;20224;-82
2021/12/24 12:46:04;;;;;;;6.43;3.40;;;;;;;7.18;91.95;95466.53;4968037;28;20221;-82
2021/12/24 12:48:53;;;;;;;6.80;3.70;;;;;;;7.12;92.27;95463.97;4967232;28;20219;-82
2021/12/24 12:51:42;;;;;;;6.27;3.50;;;;;;;7.17;93.75;95475.66;4964430;28;20207;-82
2021/12/24 12:54:29;;;;;;;4.40;3.20;;;;;;;7.25;91.16;95473.66;4960873;28;20205;-83
2021/12/24 12:57:24;;;;;;;2.80;2.20;;;;;;;7.34;89.33;95462.38;4961843;28;20205;-84
2021/12/24 13:00:20;;;;;;;3.53;1.80;;;;;;;7.67;82.74;95450.25;4964930;28;20221;-85
2021/12/24 13:03:10;;;;;;;9.53;2.03;;;;;;;7.89;81.43;95440.53;4968668;28;20425;-84
2021/12/24 13:06:01;;;;;;;5.03;2.10;;;;;;;8.06;82.70;95438.78;4981084;28;20249;-85
2021/12/24 13:08:30;;;;;;;7.80;2.70;;;;;;;8.05;83.70;95447.88;4959686;28;20213;-84
2021/12/24 13:11:01;;;;;;;5.63;2.80;;;;;;;7.96;85.21;95443.91;4964728;28;20219;-85
2021/12/24 13:13:29;;;;;;;2.97;2.20;;;;;;;7.87;86.26;95426.53;4965601;28;20200;-84